createdAt,value
2023-01-29T00:00:34.636Z,5.29
2023-01-29T00:03:21.757Z,5.30
2023-01-29T00:05:48.957Z,5.29
2023-01-29T00:08:16.071Z,5.29
2023-01-29T00:10:42.945Z,5.24
2023-01-29T00:13:10.108Z,5.25
2023-01-29T00:15:36.871Z,5.25
2023-01-29T00:18:03.927Z,5.24
2023-01-29T00:20:31.247Z,5.23
2023-01-29T00:22:58.291Z,5.20
2023-01-29T00:25:25.285Z,5.18
2023-01-29T00:27:52.643Z,5.17
2023-01-29T00:30:20.386Z,5.16
2023-01-29T00:32:47.703Z,5.13
2023-01-29T00:35:14.426Z,5.13
2023-01-29T00:37:41.567Z,5.14
2023-01-29T00:40:09.460Z,5.11
2023-01-29T00:42:55.014Z,5.13
2023-01-29T00:45:21.798Z,5.14
2023-01-29T00:47:48.901Z,5.14
2023-01-29T00:50:15.969Z,5.14
2023-01-29T00:52:43.260Z,5.13
2023-01-29T00:55:10.627Z,5.10
2023-01-29T00:57:38.021Z,5.08
2023-01-29T01:00:06.372Z,5.11
2023-01-29T01:02:55.177Z,5.12
2023-01-29T01:05:22.313Z,5.11
2023-01-29T01:07:51.588Z,5.05
2023-01-29T01:10:27.066Z,5.09
2023-01-29T01:12:54.264Z,5.09
2023-01-29T01:15:21.489Z,5.05
2023-01-29T01:17:48.961Z,5.07
2023-01-29T01:20:16.178Z,5.01
2023-01-29T01:22:43.446Z,5.01
2023-01-29T01:25:10.409Z,5.00
2023-01-29T01:27:41.098Z,5.02
2023-01-29T01:30:10.641Z,4.96
2023-01-29T01:32:38.031Z,5.00
2023-01-29T01:35:05.276Z,5.00
2023-01-29T01:37:32.320Z,5.01
2023-01-29T01:39:59.096Z,4.97
2023-01-29T01:42:30.540Z,4.90
2023-01-29T01:45:06.591Z,4.96
2023-01-29T01:47:40.928Z,4.94
2023-01-29T01:50:11.782Z,4.95
2023-01-29T01:52:40.659Z,4.97
2023-01-29T01:55:07.849Z,4.96
2023-01-29T01:57:34.945Z,4.91
2023-01-29T02:00:11.510Z,4.92
2023-01-29T02:02:57.610Z,4.93
2023-01-29T02:05:43.123Z,4.90
2023-01-29T02:08:28.792Z,4.86
2023-01-29T02:10:55.719Z,4.88
2023-01-29T02:13:22.863Z,4.89
2023-01-29T02:15:49.702Z,4.86
2023-01-29T02:18:18.104Z,4.83
2023-01-29T02:21:24.984Z,4.86
2023-01-29T02:24:00.489Z,4.81
2023-01-29T02:26:41.101Z,4.88
2023-01-29T02:29:22.807Z,4.77
2023-01-29T02:32:00.702Z,4.75
2023-01-29T02:35:12.848Z,4.78
2023-01-29T02:38:02.115Z,4.78
2023-01-29T02:40:55.531Z,4.84
2023-01-29T02:43:54.062Z,4.79
2023-01-29T02:46:41.008Z,4.78
2023-01-29T02:49:13.305Z,4.72
2023-01-29T02:51:45.038Z,4.77
2023-01-29T02:54:18.872Z,4.77
2023-01-29T02:56:51.887Z,4.78
2023-01-29T02:59:31.386Z,4.74
2023-01-29T03:02:02.709Z,4.76
2023-01-29T03:04:33.363Z,4.82
2023-01-29T03:07:05.676Z,4.82
2023-01-29T03:09:41.880Z,4.75
2023-01-29T03:12:34.003Z,4.80
2023-01-29T03:15:25.232Z,4.81
2023-01-29T03:18:01.767Z,4.80
2023-01-29T03:20:34.156Z,4.78
2023-01-29T03:23:04.053Z,4.74
2023-01-29T03:25:49.363Z,4.72
2023-01-29T03:28:36.008Z,4.68
2023-01-29T03:31:23.201Z,4.72
2023-01-29T03:34:16.276Z,4.71
2023-01-29T03:36:47.329Z,4.71
2023-01-29T03:39:14.524Z,4.65
2023-01-29T03:41:58.086Z,4.67
2023-01-29T03:44:56.187Z,4.69
2023-01-29T03:47:35.381Z,4.65
2023-01-29T03:50:06.875Z,4.63
2023-01-29T03:52:45.990Z,4.61
2023-01-29T03:55:49.982Z,4.60
2023-01-29T03:58:28.782Z,4.63
2023-01-29T04:01:42.571Z,4.59
2023-01-29T04:04:13.284Z,4.57
2023-01-29T04:06:41.130Z,4.56
2023-01-29T04:09:14.685Z,4.53
2023-01-29T04:11:45.107Z,4.57
2023-01-29T04:14:11.982Z,4.60
2023-01-29T04:16:41.254Z,4.60
2023-01-29T04:19:08.066Z,4.59
2023-01-29T04:21:37.158Z,4.56
2023-01-29T04:24:05.257Z,4.57
2023-01-29T04:26:46.026Z,4.57
2023-01-29T04:29:22.053Z,4.57
2023-01-29T04:32:10.885Z,4.54
2023-01-29T04:35:04.029Z,4.54
2023-01-29T04:37:37.721Z,4.57
2023-01-29T04:40:04.457Z,4.62
2023-01-29T04:42:37.384Z,4.53
2023-01-29T04:45:44.726Z,4.57
2023-01-29T04:48:25.738Z,4.52
2023-01-29T04:51:10.447Z,4.57
2023-01-29T04:53:52.570Z,4.54
2023-01-29T04:56:31.377Z,4.57
2023-01-29T04:59:02.202Z,4.54
2023-01-29T05:01:29.853Z,4.55
2023-01-29T05:03:57.017Z,4.59
2023-01-29T05:06:24.736Z,4.58
2023-01-29T05:08:52.050Z,4.51
2023-01-29T05:11:19.069Z,4.49
2023-01-29T05:13:46.123Z,4.51
2023-01-29T05:16:24.412Z,4.56
2023-01-29T05:18:51.655Z,4.53
2023-01-29T05:21:18.379Z,4.54
2023-01-29T05:23:53.296Z,4.52
2023-01-29T05:26:39.809Z,4.52
2023-01-29T05:29:06.860Z,4.53
2023-01-29T05:31:33.774Z,4.49
2023-01-29T05:34:00.838Z,4.53
2023-01-29T05:36:27.677Z,4.53
2023-01-29T05:38:54.796Z,4.49
2023-01-29T05:41:21.562Z,4.45
2023-01-29T05:43:48.581Z,4.49
2023-01-29T05:46:15.370Z,4.45
2023-01-29T05:48:42.449Z,4.49
2023-01-29T05:51:09.227Z,4.42
2023-01-29T05:53:36.289Z,4.47
2023-01-29T05:56:03.685Z,4.46
2023-01-29T05:58:33.940Z,4.52
2023-01-29T06:01:15.363Z,4.49
2023-01-29T06:03:42.527Z,4.50
2023-01-29T06:06:09.468Z,4.46
2023-01-29T06:08:36.677Z,4.45
2023-01-29T06:11:03.541Z,4.45
2023-01-29T06:13:30.607Z,4.40
2023-01-29T06:15:57.396Z,4.41
2023-01-29T06:18:24.627Z,4.43
2023-01-29T06:20:51.386Z,4.46
2023-01-29T06:23:18.478Z,4.44
2023-01-29T06:25:45.256Z,4.37
2023-01-29T06:28:12.894Z,4.40
2023-01-29T06:30:39.698Z,4.43
2023-01-29T06:33:06.794Z,4.46
2023-01-29T06:35:33.517Z,4.38
2023-01-29T06:38:00.610Z,4.43
2023-01-29T06:40:27.370Z,4.40
2023-01-29T06:42:54.466Z,4.40
2023-01-29T06:45:21.325Z,4.42
2023-01-29T06:47:48.523Z,4.40
2023-01-29T06:50:15.730Z,4.40
2023-01-29T06:52:42.903Z,4.41
2023-01-29T06:55:09.778Z,4.44
2023-01-29T06:57:36.801Z,4.43
2023-01-29T07:00:04.689Z,4.43
2023-01-29T07:02:31.792Z,4.42
2023-01-29T07:04:58.649Z,4.41
2023-01-29T07:07:25.785Z,4.43
2023-01-29T07:09:52.561Z,4.44
2023-01-29T07:12:19.665Z,4.45
2023-01-29T07:14:46.692Z,4.45
2023-01-29T07:17:13.785Z,4.51
2023-01-29T07:19:40.600Z,4.42
2023-01-29T07:22:07.632Z,4.39
2023-01-29T07:24:34.478Z,4.44
2023-01-29T07:27:01.612Z,4.41
2023-01-29T07:29:28.454Z,4.46
2023-01-29T07:31:55.583Z,4.46
2023-01-29T07:34:22.352Z,4.47
2023-01-29T07:36:49.455Z,4.45
2023-01-29T07:39:16.229Z,4.46
2023-01-29T07:41:43.324Z,4.46
2023-01-29T07:44:10.170Z,4.49
2023-01-29T07:46:37.235Z,4.48
2023-01-29T07:49:03.975Z,4.50
2023-01-29T07:51:31.072Z,4.43
2023-01-29T07:53:57.905Z,4.42
2023-01-29T07:56:25.007Z,4.49
2023-01-29T07:58:51.776Z,4.51
2023-01-29T08:01:18.924Z,4.45
2023-01-29T08:03:45.691Z,4.50
2023-01-29T08:06:12.757Z,4.47
2023-01-29T08:08:39.528Z,4.52
2023-01-29T08:11:06.675Z,4.51
2023-01-29T08:13:33.605Z,4.53
2023-01-29T08:16:04.199Z,4.48
2023-01-29T08:18:33.904Z,4.48
2023-01-29T08:21:01.484Z,4.50
2023-01-29T08:23:28.221Z,4.52
2023-01-29T08:25:55.403Z,4.52
2023-01-29T08:28:22.178Z,4.56
2023-01-29T08:30:49.229Z,4.53
2023-01-29T08:33:17.532Z,4.45
2023-01-29T08:35:49.262Z,4.58
2023-01-29T08:38:16.110Z,4.57
2023-01-29T08:40:43.301Z,4.59
2023-01-29T08:43:10.954Z,4.63
2023-01-29T08:45:40.123Z,4.65
2023-01-29T08:48:07.356Z,4.65
2023-01-29T08:50:35.160Z,4.63
2023-01-29T08:53:07.835Z,4.66
2023-01-29T08:55:39.149Z,4.63
2023-01-29T08:58:10.462Z,4.59
2023-01-29T09:00:37.688Z,4.70
2023-01-29T09:03:05.052Z,4.70
2023-01-29T09:05:32.201Z,4.70
2023-01-29T09:07:59.241Z,4.66
2023-01-29T09:10:26.481Z,4.72
2023-01-29T09:12:53.229Z,4.71
2023-01-29T09:15:20.381Z,4.70
2023-01-29T09:17:47.189Z,4.73
2023-01-29T09:20:14.214Z,4.74
2023-01-29T09:22:41.475Z,4.76
2023-01-29T09:25:08.685Z,4.77
2023-01-29T09:27:35.534Z,4.75
2023-01-29T09:30:03.287Z,4.76
2023-01-29T09:35:20.320Z,5.04
2023-01-29T09:37:50.892Z,4.96
2023-01-29T09:40:45.965Z,4.89
2023-01-29T09:43:21.703Z,4.93
2023-01-29T09:46:00.399Z,4.94
2023-01-29T09:48:28.647Z,4.95
2023-01-29T09:50:56.467Z,4.94
2023-01-29T09:53:35.344Z,4.98
2023-01-29T09:56:12.964Z,4.96
2023-01-29T09:58:41.701Z,4.92
2023-01-29T10:01:26.801Z,4.93
2023-01-29T10:04:14.808Z,4.97
2023-01-29T10:06:47.830Z,4.94
2023-01-29T10:10:02.950Z,4.94
2023-01-29T10:12:59.457Z,4.90
2023-01-29T10:15:29.279Z,4.90
2023-01-29T10:17:59.347Z,4.91
2023-01-29T10:20:47.949Z,4.91
2023-01-29T10:23:15.043Z,5.01
2023-01-29T10:25:41.841Z,4.99
2023-01-29T10:28:38.029Z,5.01
2023-01-29T10:31:29.380Z,5.00
2023-01-29T10:34:18.164Z,4.97
2023-01-29T10:36:46.193Z,4.99
2023-01-29T10:39:18.611Z,5.01
2023-01-29T10:42:13.422Z,5.01
2023-01-29T10:44:43.613Z,5.02
2023-01-29T10:47:30.396Z,5.03
2023-01-29T10:50:18.614Z,5.08
2023-01-29T10:52:57.278Z,5.08
2023-01-29T10:55:44.667Z,5.08
2023-01-29T10:58:26.320Z,5.09
2023-01-29T11:00:53.463Z,5.10
2023-01-29T11:03:30.360Z,5.13
2023-01-29T11:06:25.440Z,5.16
2023-01-29T11:08:57.086Z,5.16
2023-01-29T11:11:50.926Z,5.19
2023-01-29T11:14:31.477Z,5.18
2023-01-29T11:16:58.568Z,5.20
2023-01-29T11:19:42.198Z,5.19
2023-01-29T11:22:12.862Z,5.24
2023-01-29T11:24:39.616Z,5.18
2023-01-29T11:27:23.536Z,5.24
2023-01-29T11:29:50.487Z,5.31
2023-01-29T11:32:23.852Z,5.26
2023-01-29T11:35:19.490Z,5.26
2023-01-29T11:37:47.080Z,5.30
2023-01-29T11:40:20.069Z,5.35
2023-01-29T11:42:47.339Z,5.34
2023-01-29T11:45:20.291Z,5.42
2023-01-29T11:47:51.241Z,5.41
2023-01-29T11:50:21.853Z,5.39
2023-01-29T11:52:48.891Z,5.46
2023-01-29T11:55:50.778Z,5.48
2023-01-29T11:58:31.551Z,5.50
2023-01-29T12:00:58.485Z,5.52
2023-01-29T12:03:34.632Z,5.60
2023-01-29T12:06:07.287Z,5.67
2023-01-29T12:08:38.315Z,5.69
2023-01-29T12:11:27.465Z,5.71
2023-01-29T12:13:55.719Z,5.73
2023-01-29T12:16:48.308Z,5.72
2023-01-29T12:19:28.330Z,5.70
2023-01-29T12:22:43.379Z,5.70
2023-01-29T12:25:16.198Z,5.79
2023-01-29T12:28:02.911Z,5.77
2023-01-29T12:30:33.981Z,5.75
2023-01-29T12:33:03.956Z,5.84
2023-01-29T12:35:36.801Z,5.88
2023-01-29T12:38:24.878Z,5.91
2023-01-29T12:40:57.255Z,5.91
2023-01-29T12:43:38.811Z,5.95
2023-01-29T12:46:07.611Z,5.97
2023-01-29T12:48:34.892Z,5.97
2023-01-29T12:51:11.407Z,5.99
2023-01-29T12:53:40.696Z,6.03
2023-01-29T12:56:13.320Z,6.09
2023-01-29T12:58:43.455Z,6.07
2023-01-29T13:01:14.622Z,6.07
2023-01-29T13:03:55.524Z,6.03
2023-01-29T13:06:28.926Z,6.07
2023-01-29T13:08:58.109Z,6.07
2023-01-29T13:11:39.771Z,6.08
2023-01-29T13:14:21.010Z,6.10
2023-01-29T13:16:49.626Z,6.07
2023-01-29T13:19:32.077Z,6.06
2023-01-29T13:22:00.737Z,6.04
2023-01-29T13:24:39.988Z,6.09
2023-01-29T13:27:07.210Z,6.05
2023-01-29T13:29:33.993Z,6.11
2023-01-29T13:32:03.007Z,6.10
2023-01-29T13:34:44.536Z,6.11
2023-01-29T13:37:13.145Z,6.13
2023-01-29T13:39:46.825Z,6.11
2023-01-29T13:42:18.813Z,6.11
2023-01-29T13:44:50.149Z,6.13
2023-01-29T13:47:30.057Z,6.21
2023-01-29T13:50:21.044Z,6.23
2023-01-29T13:52:55.008Z,6.21
2023-01-29T13:55:35.321Z,6.23
2023-01-29T13:58:06.718Z,6.26
2023-01-29T14:00:33.470Z,6.23
2023-01-29T14:03:00.557Z,6.22
2023-01-29T14:05:30.850Z,6.21
2023-01-29T14:08:13.766Z,6.22
2023-01-29T14:10:41.573Z,6.21
2023-01-29T14:13:11.774Z,6.24
2023-01-29T14:15:39.770Z,6.24
2023-01-29T14:18:15.442Z,6.22
2023-01-29T14:20:48.327Z,6.26
2023-01-29T14:23:49.986Z,6.24
2023-01-29T14:26:30.438Z,6.24
2023-01-29T14:28:59.040Z,6.25
2023-01-29T14:31:58.852Z,6.23
2023-01-29T14:34:49.794Z,6.23
2023-01-29T14:37:16.724Z,6.19
2023-01-29T14:39:54.022Z,6.21
2023-01-29T14:42:26.063Z,6.20
2023-01-29T14:45:20.631Z,6.19
2023-01-29T14:47:47.509Z,6.21
2023-01-29T14:50:38.494Z,6.18
2023-01-29T14:53:25.662Z,6.13
2023-01-29T14:56:02.165Z,6.17
2023-01-29T14:58:52.048Z,6.12
2023-01-29T15:01:25.281Z,6.14
2023-01-29T15:04:13.110Z,6.14
2023-01-29T15:06:48.258Z,6.10
2023-01-29T15:09:35.891Z,6.08
2023-01-29T15:12:09.200Z,6.05
2023-01-29T15:14:36.975Z,6.06
2023-01-29T15:17:25.653Z,6.05
2023-01-29T15:19:52.993Z,6.07
2023-01-29T15:22:26.019Z,6.09
2023-01-29T15:25:04.677Z,6.05
2023-01-29T15:27:31.847Z,6.03
2023-01-29T15:30:03.716Z,6.02
2023-01-29T15:32:36.080Z,5.99
2023-01-29T15:35:07.912Z,5.95
2023-01-29T15:37:35.692Z,5.97
2023-01-29T15:40:02.764Z,5.95
2023-01-29T15:42:41.768Z,5.97
2023-01-29T15:45:40.118Z,5.92
2023-01-29T15:48:11.970Z,5.94
2023-01-29T15:50:40.632Z,5.91
2023-01-29T15:53:14.446Z,5.90
2023-01-29T15:55:41.282Z,5.88
2023-01-29T15:58:13.177Z,5.88
2023-01-29T16:00:39.921Z,5.84
2023-01-29T16:03:14.464Z,5.83
2023-01-29T16:05:41.357Z,5.81
2023-01-29T16:08:12.952Z,5.82
2023-01-29T16:10:40.584Z,5.80
2023-01-29T16:13:16.777Z,5.79
2023-01-29T16:15:57.392Z,5.79
2023-01-29T16:18:33.993Z,5.75
2023-01-29T16:21:08.884Z,5.72
2023-01-29T16:23:40.292Z,5.72
2023-01-29T16:26:08.404Z,5.69
2023-01-29T16:28:42.531Z,5.65
2023-01-29T16:31:09.654Z,5.66
2023-01-29T16:33:38.998Z,5.67
2023-01-29T16:36:17.899Z,5.66
2023-01-29T16:38:56.798Z,5.59
2023-01-29T16:41:24.817Z,5.60
2023-01-29T16:43:54.988Z,5.57
2023-01-29T16:46:34.055Z,5.55
2023-01-29T16:49:01.409Z,5.55
2023-01-29T16:51:30.165Z,5.52
2023-01-29T16:54:18.301Z,5.48
2023-01-29T16:56:46.438Z,5.46
2023-01-29T16:59:39.841Z,5.44
2023-01-29T17:02:15.238Z,5.43
2023-01-29T17:04:42.313Z,5.42
2023-01-29T17:07:16.168Z,5.41
2023-01-29T17:09:43.318Z,5.36
2023-01-29T17:12:10.139Z,5.34
2023-01-29T17:14:38.619Z,5.34
2023-01-29T17:17:07.142Z,5.32
2023-01-29T17:19:34.282Z,5.29
2023-01-29T17:22:04.741Z,5.29
2023-01-29T17:24:32.051Z,5.26
2023-01-29T17:27:00.077Z,5.24
2023-01-29T17:29:30.031Z,5.23
2023-01-29T17:31:57.089Z,5.21
2023-01-29T17:34:24.395Z,5.21
2023-01-29T17:36:51.192Z,5.17
2023-01-29T17:39:20.064Z,5.15
2023-01-29T17:41:51.437Z,5.17
2023-01-29T17:44:18.846Z,5.15
2023-01-29T17:46:46.565Z,5.10
2023-01-29T17:49:22.572Z,5.09
2023-01-29T17:51:50.150Z,5.10
2023-01-29T17:54:17.219Z,5.10
2023-01-29T17:56:44.009Z,5.09
2023-01-29T17:59:37.503Z,5.06
2023-01-29T18:02:04.436Z,5.02
2023-01-29T18:04:31.553Z,5.02
2023-01-29T18:06:58.409Z,5.02
2023-01-29T18:09:25.710Z,5.02
2023-01-29T18:11:53.609Z,5.02
2023-01-29T18:14:20.842Z,5.00
2023-01-29T18:16:47.751Z,4.98
2023-01-29T18:19:23.576Z,4.98
2023-01-29T18:21:51.088Z,4.97
2023-01-29T18:24:20.457Z,4.96
2023-01-29T18:26:48.352Z,5.00
2023-01-29T18:29:15.808Z,4.95
2023-01-29T18:31:42.833Z,4.92
2023-01-29T18:34:10.252Z,4.90
2023-01-29T18:36:37.193Z,4.93
2023-01-29T18:39:04.341Z,4.93
2023-01-29T18:41:31.281Z,4.94
2023-01-29T18:43:58.595Z,4.98
2023-01-29T18:46:25.595Z,4.94
2023-01-29T18:48:52.928Z,4.94
2023-01-29T18:51:19.819Z,4.91
2023-01-29T18:53:53.307Z,4.94
2023-01-29T18:56:20.537Z,4.93
2023-01-29T18:58:52.157Z,4.95
2023-01-29T19:01:20.016Z,4.93
2023-01-29T19:03:47.222Z,4.95
2023-01-29T19:06:14.124Z,4.93
2023-01-29T19:08:43.015Z,4.92
2023-01-29T19:11:12.402Z,4.92
2023-01-29T19:13:40.633Z,4.92
2023-01-29T19:16:09.148Z,4.88
2023-01-29T19:18:36.632Z,4.88
2023-01-29T19:21:11.586Z,4.87
2023-01-29T19:23:39.554Z,4.90
2023-01-29T19:26:06.339Z,4.93
2023-01-29T19:28:33.836Z,4.90
2023-01-29T19:31:01.027Z,4.91
2023-01-29T19:33:28.527Z,4.87
2023-01-29T19:35:56.619Z,4.91
2023-01-29T19:38:24.055Z,4.87
2023-01-29T19:40:51.384Z,4.86
2023-01-29T19:43:18.691Z,4.88
2023-01-29T19:45:50.110Z,4.87
2023-01-29T19:48:21.382Z,4.85
2023-01-29T19:50:52.972Z,4.81
2023-01-29T19:53:20.721Z,4.81
2023-01-29T19:55:48.618Z,4.81
2023-01-29T19:58:16.454Z,4.78
2023-01-29T20:00:43.377Z,4.79
2023-01-29T20:03:10.813Z,4.78
2023-01-29T20:05:38.344Z,4.77
2023-01-29T20:08:06.165Z,4.79
2023-01-29T20:10:33.234Z,4.79
2023-01-29T20:13:02.563Z,4.80
2023-01-29T20:15:30.110Z,4.78
2023-01-29T20:17:58.945Z,4.75
2023-01-29T20:20:29.852Z,4.77
2023-01-29T20:23:01.628Z,4.76
2023-01-29T20:25:28.729Z,4.76
2023-01-29T20:27:56.228Z,4.75
2023-01-29T20:30:23.154Z,4.75
2023-01-29T20:32:50.656Z,4.73
2023-01-29T20:35:17.989Z,4.72
2023-01-29T20:37:45.484Z,4.72
2023-01-29T20:40:12.839Z,4.74
2023-01-29T20:42:40.193Z,4.70
2023-01-29T20:45:07.444Z,4.70
2023-01-29T20:47:34.891Z,4.70
2023-01-29T20:50:08.616Z,4.71
2023-01-29T20:52:36.436Z,4.69
2023-01-29T20:55:04.529Z,4.71
2023-01-29T20:57:32.087Z,4.67
2023-01-29T20:59:59.106Z,4.67
2023-01-29T21:02:26.567Z,4.65
2023-01-29T21:04:53.535Z,4.63
2023-01-29T21:07:21.064Z,4.67
2023-01-29T21:09:48.133Z,4.64
2023-01-29T21:12:15.465Z,4.64
2023-01-29T21:14:42.596Z,4.57
2023-01-29T21:17:10.101Z,4.48
2023-01-29T21:19:37.190Z,4.56
2023-01-29T21:22:04.804Z,4.59
2023-01-29T21:24:31.898Z,4.62
2023-01-29T21:26:59.263Z,4.62
2023-01-29T21:29:26.140Z,4.60
2023-01-29T21:31:53.582Z,4.58
2023-01-29T21:34:20.779Z,4.58
2023-01-29T21:36:48.417Z,4.54
2023-01-29T21:39:19.765Z,4.56
2023-01-29T21:42:07.273Z,4.57
2023-01-29T21:44:34.555Z,4.53
2023-01-29T21:47:02.032Z,4.53
2023-01-29T21:49:28.955Z,4.46
2023-01-29T21:51:56.403Z,4.49
2023-01-29T21:54:23.253Z,4.47
2023-01-29T21:56:50.410Z,4.47
2023-01-29T21:59:17.227Z,4.45
2023-01-29T22:01:44.395Z,4.47
2023-01-29T22:04:11.630Z,4.41
2023-01-29T22:06:38.769Z,4.35
2023-01-29T22:09:05.616Z,4.40
2023-01-29T22:11:33.070Z,4.41
2023-01-29T22:14:00.117Z,4.35
2023-01-29T22:16:27.232Z,4.38
2023-01-29T22:18:54.014Z,4.38
2023-01-29T22:21:21.093Z,4.37
2023-01-29T22:23:48.751Z,4.38
2023-01-29T22:26:15.984Z,4.38
2023-01-29T22:28:42.977Z,4.37
2023-01-29T22:31:10.075Z,4.40
2023-01-29T22:33:36.908Z,4.40
2023-01-29T22:36:04.493Z,4.36
2023-01-29T22:38:31.444Z,4.36
2023-01-29T22:40:59.799Z,4.35
2023-01-29T22:43:26.592Z,4.32
2023-01-29T22:45:53.700Z,4.35
2023-01-29T22:48:20.472Z,4.27
2023-01-29T22:50:53.916Z,4.24
2023-01-29T22:53:20.808Z,4.24
2023-01-29T22:55:55.389Z,4.26
2023-01-29T22:58:22.318Z,4.20
2023-01-29T23:00:52.483Z,4.20
2023-01-29T23:03:19.317Z,4.20
2023-01-29T23:05:46.464Z,4.18
2023-01-29T23:08:13.232Z,4.17
2023-01-29T23:10:40.372Z,4.18
2023-01-29T23:13:07.159Z,4.16
2023-01-29T23:15:34.382Z,4.13
2023-01-29T23:18:01.413Z,4.15
2023-01-29T23:20:28.569Z,4.15
2023-01-29T23:22:55.599Z,4.13
2023-01-29T23:25:22.736Z,4.08
2023-01-29T23:27:49.501Z,4.06
2023-01-29T23:30:17.195Z,4.01
2023-01-29T23:32:44.358Z,3.99
2023-01-29T23:35:11.450Z,3.97
2023-01-29T23:37:38.224Z,3.99
2023-01-29T23:40:05.944Z,3.95
2023-01-29T23:42:32.701Z,3.93
2023-01-29T23:44:59.842Z,3.93
2023-01-29T23:47:26.589Z,3.93
2023-01-29T23:49:53.873Z,3.92
2023-01-29T23:52:20.693Z,3.89
2023-01-29T23:54:47.777Z,3.91
2023-01-29T23:57:14.500Z,3.88
2023-01-29T23:59:41.595Z,3.88
